createdAt,value
2022-08-02T00:00:02.841Z,72.4
2022-08-02T00:03:02.830Z,72.4
2022-08-02T00:06:02.778Z,72.7
2022-08-02T00:09:02.731Z,72.7
2022-08-02T00:12:02.855Z,72.7
2022-08-02T00:15:02.720Z,72.7
2022-08-02T00:18:02.748Z,72.7
2022-08-02T00:21:02.734Z,72.7
2022-08-02T00:24:32.763Z,72.7
2022-08-02T00:27:02.756Z,72.7
2022-08-02T00:30:02.821Z,72.7
2022-08-02T00:33:02.741Z,72.7
2022-08-02T00:36:02.808Z,72.7
2022-08-02T00:39:02.774Z,72.7
2022-08-02T00:42:02.776Z,73.7
2022-08-02T00:45:02.748Z,73.7
2022-08-02T00:48:02.769Z,73.7
2022-08-02T00:51:02.789Z,73.7
2022-08-02T00:54:02.780Z,73.7
2022-08-02T00:57:02.791Z,74
2022-08-02T01:00:02.807Z,74
2022-08-02T01:03:02.801Z,74
2022-08-02T01:06:14.234Z,74
2022-08-02T01:09:02.753Z,74
2022-08-02T01:12:05.126Z,74
2022-08-02T01:15:02.786Z,74
2022-08-02T01:18:02.763Z,74.6
2022-08-02T01:21:02.796Z,74.6
2022-08-02T01:24:02.764Z,74.6
2022-08-02T01:27:02.760Z,74.6
2022-08-02T01:30:02.831Z,74.6
2022-08-02T01:33:02.743Z,74.6
2022-08-02T01:36:02.810Z,74.6
2022-08-02T01:39:02.734Z,74.6
2022-08-02T01:42:02.771Z,74.6
2022-08-02T01:45:02.833Z,74.6
2022-08-02T01:48:02.812Z,75.4
2022-08-02T01:51:02.748Z,75.4
2022-08-02T01:54:02.830Z,75.4
2022-08-02T01:57:02.769Z,75.4
2022-08-02T02:00:04.035Z,75.4
2022-08-02T02:03:04.428Z,75.4
2022-08-02T02:06:02.802Z,75.4
2022-08-02T02:09:02.795Z,75.8
2022-08-02T02:12:16.213Z,75.8
2022-08-02T02:15:02.796Z,75.8
2022-08-02T02:18:16.072Z,75.8
2022-08-02T02:21:02.785Z,75.8
2022-08-02T02:24:02.751Z,75.8
2022-08-02T02:27:02.813Z,75.8
2022-08-02T02:30:02.814Z,75.8
2022-08-02T02:33:02.751Z,75.8
2022-08-02T02:36:02.804Z,75.8
2022-08-02T02:39:04.062Z,75.7
2022-08-02T02:42:02.750Z,75.8
2022-08-02T02:45:02.772Z,75.8
2022-08-02T02:48:02.743Z,75.8
2022-08-02T02:51:02.792Z,75.8
2022-08-02T02:54:37.116Z,75.8
2022-08-02T02:57:02.759Z,75.8
2022-08-02T03:00:02.771Z,75.8
2022-08-02T03:03:02.759Z,75.8
2022-08-02T03:06:02.785Z,75.8
2022-08-02T03:09:02.744Z,75.8
2022-08-02T03:12:02.809Z,75.8
2022-08-02T03:15:02.776Z,76.3
2022-08-02T03:18:02.783Z,76.3
2022-08-02T03:21:02.713Z,76.3
2022-08-02T03:24:02.750Z,76.3
2022-08-02T03:27:02.752Z,76.3
2022-08-02T03:30:02.758Z,76.3
2022-08-02T03:33:02.723Z,76.3
2022-08-02T03:36:03.558Z,76.3
2022-08-02T03:39:02.791Z,77.6
2022-08-02T03:42:03.555Z,77.6
2022-08-02T03:45:11.024Z,77.6
2022-08-02T03:48:02.759Z,77.6
2022-08-02T03:51:02.778Z,77.6
2022-08-02T03:54:02.769Z,77.6
2022-08-02T03:57:02.766Z,77.6
2022-08-02T04:00:02.800Z,77.6
2022-08-02T04:03:02.790Z,77.6
2022-08-02T04:06:07.193Z,77.6
2022-08-02T04:09:02.816Z,77.6
2022-08-02T04:12:02.813Z,77.6
2022-08-02T04:15:02.945Z,77.6
2022-08-02T04:18:03.066Z,77.6
2022-08-02T04:21:02.790Z,77.6
2022-08-02T04:24:02.775Z,77.6
2022-08-02T04:30:02.818Z,77.6
2022-08-02T04:33:02.763Z,79.5
2022-08-02T04:36:02.796Z,79.5
2022-08-02T04:39:02.944Z,79.5
2022-08-02T04:42:02.814Z,79.5
2022-08-02T04:45:03.016Z,79.5
2022-08-02T04:48:08.489Z,79.5
2022-08-02T04:51:02.742Z,79.5
2022-08-02T04:54:11.676Z,79.6
2022-08-02T04:57:02.792Z,79.6
2022-08-02T05:00:02.946Z,79.6
2022-08-02T05:03:02.767Z,79.6
2022-08-02T05:06:02.814Z,79.6
2022-08-02T05:09:02.782Z,79.6
2022-08-02T05:12:02.772Z,79.6
2022-08-02T05:15:03.014Z,79.6
2022-08-02T05:18:02.889Z,79.6
2022-08-02T05:21:02.784Z,79.6
2022-08-02T05:24:02.839Z,80.3
2022-08-02T05:27:21.316Z,80.3
2022-08-02T05:30:02.980Z,80.7
2022-08-02T05:33:02.791Z,80.7
2022-08-02T05:36:02.796Z,80.7
2022-08-02T05:39:18.609Z,80.7
2022-08-02T05:42:02.814Z,82
2022-08-02T05:45:02.832Z,82
2022-08-02T05:48:06.036Z,82
2022-08-02T05:51:02.825Z,82
2022-08-02T05:54:02.834Z,82
2022-08-02T05:57:02.793Z,82
2022-08-02T06:00:05.100Z,82
2022-08-02T06:03:02.787Z,82
2022-08-02T06:06:02.816Z,82
2022-08-02T06:09:02.823Z,81.2
2022-08-02T06:12:05.420Z,81.2
2022-08-02T06:15:02.779Z,81.2
2022-08-02T06:18:02.819Z,81.2
2022-08-02T06:24:02.830Z,80.7
2022-08-02T06:27:02.783Z,80.7
2022-08-02T06:30:02.831Z,80.7
2022-08-02T06:33:02.800Z,80.7
2022-08-02T06:36:03.285Z,80.6
2022-08-02T06:39:02.820Z,80.6
2022-08-02T06:42:02.851Z,80.6
2022-08-02T06:45:02.765Z,80.6
2022-08-02T06:48:02.855Z,79.9
2022-08-02T06:51:02.757Z,79.9
2022-08-02T06:54:02.819Z,79.9
2022-08-02T06:57:02.786Z,79.9
2022-08-02T07:00:02.859Z,78.5
2022-08-02T07:03:02.796Z,78.5
2022-08-02T07:06:02.825Z,78.5
2022-08-02T07:09:23.935Z,78.5
2022-08-02T07:12:02.807Z,77
2022-08-02T07:15:02.904Z,77.8
2022-08-02T07:18:02.816Z,77.8
2022-08-02T07:21:02.768Z,77.8
2022-08-02T07:24:02.789Z,77.8
2022-08-02T07:27:15.267Z,76.5
2022-08-02T07:30:02.915Z,76.5
2022-08-02T07:33:02.801Z,76.5
2022-08-02T07:36:06.969Z,76.5
2022-08-02T07:39:02.798Z,76.1
2022-08-02T07:42:02.825Z,76.1
2022-08-02T07:45:02.819Z,76.1
2022-08-02T07:48:02.802Z,74.5
2022-08-02T07:51:02.780Z,74.5
2022-08-02T07:54:06.941Z,74.5
2022-08-02T07:57:02.790Z,74.5
2022-08-02T08:00:02.794Z,73.9
2022-08-02T08:03:02.879Z,73.9
2022-08-02T08:06:02.810Z,73.9
2022-08-02T08:09:02.859Z,72
2022-08-02T08:12:02.805Z,72
2022-08-02T08:15:02.828Z,72
2022-08-02T08:18:02.822Z,72
2022-08-02T08:21:02.990Z,71.5
2022-08-02T08:24:02.861Z,71.5
2022-08-02T08:27:03.030Z,71.5
2022-08-02T08:30:02.853Z,71.5
2022-08-02T08:33:02.852Z,68.8
2022-08-02T08:36:04.975Z,68.8
2022-08-02T08:39:02.806Z,68.8
2022-08-02T08:42:02.838Z,68.8
2022-08-02T08:45:03.326Z,68.8
2022-08-02T08:48:02.899Z,65.4
2022-08-02T08:51:02.743Z,65.4
2022-08-02T08:54:02.791Z,65.4
2022-08-02T08:57:02.793Z,65.4
2022-08-02T09:00:02.860Z,65.4
2022-08-02T09:03:02.829Z,65
2022-08-02T09:06:02.819Z,65
2022-08-02T09:09:02.833Z,65
2022-08-02T09:12:02.800Z,65
2022-08-02T09:15:02.825Z,65
2022-08-02T09:18:02.784Z,65
2022-08-02T09:21:04.455Z,65
2022-08-02T09:24:02.800Z,62
2022-08-02T09:27:02.798Z,62
2022-08-02T09:30:16.339Z,62
2022-08-02T09:33:07.948Z,62
2022-08-02T09:36:10.608Z,62
2022-08-02T09:39:02.814Z,62
2022-08-02T09:42:02.824Z,59.8
2022-08-02T09:45:02.819Z,59.8
2022-08-02T09:48:02.971Z,59.8
2022-08-02T09:51:02.805Z,59.8
2022-08-02T09:54:11.450Z,59.8
2022-08-02T09:57:02.851Z,59.8
2022-08-02T10:00:02.855Z,58.3
2022-08-02T10:03:02.799Z,58.5
2022-08-02T10:06:05.447Z,58.5
2022-08-02T10:09:02.794Z,58.5
2022-08-02T10:12:03.419Z,58.5
2022-08-02T10:15:02.815Z,58.5
2022-08-02T10:18:12.944Z,58.5
2022-08-02T10:21:02.848Z,58.5
2022-08-02T10:24:02.843Z,56
2022-08-02T10:27:03.535Z,56
2022-08-02T10:30:02.940Z,56
2022-08-02T10:33:02.851Z,56
2022-08-02T10:36:09.982Z,56
2022-08-02T10:39:02.879Z,56
2022-08-02T10:42:03.282Z,56
2022-08-02T10:45:02.831Z,56
2022-08-02T10:48:03.876Z,56
2022-08-02T10:51:02.799Z,56
2022-08-02T10:54:02.821Z,55
2022-08-02T10:57:03.942Z,55.2
2022-08-02T11:00:02.815Z,55.2
2022-08-02T11:03:02.779Z,55.2
2022-08-02T11:06:02.786Z,55.2
2022-08-02T11:09:06.513Z,55.2
2022-08-02T11:12:02.793Z,55.2
2022-08-02T11:15:02.841Z,55.2
2022-08-02T11:18:02.818Z,55.2
2022-08-02T11:21:02.824Z,55.2
2022-08-02T11:24:02.808Z,51.2
2022-08-02T11:27:02.795Z,51.2
2022-08-02T11:30:02.950Z,51.2
2022-08-02T11:33:02.828Z,51.2
2022-08-02T11:36:02.835Z,51.2
2022-08-02T11:39:02.810Z,51.2
2022-08-02T11:42:02.870Z,51.2
2022-08-02T11:45:03.826Z,51.2
2022-08-02T11:51:02.833Z,52.8
2022-08-02T11:54:02.829Z,52.8
2022-08-02T11:57:02.778Z,52.8
2022-08-02T12:00:03.089Z,51.2
2022-08-02T12:03:03.101Z,51.2
2022-08-02T12:06:18.449Z,51.2
2022-08-02T12:09:02.776Z,51.2
2022-08-02T12:12:02.812Z,51.2
2022-08-02T12:15:02.766Z,51.2
2022-08-02T12:18:02.792Z,51.2
2022-08-02T12:21:02.773Z,51.2
2022-08-02T12:24:03.776Z,51.2
2022-08-02T12:27:02.827Z,50.7
2022-08-02T12:30:02.829Z,50.7
2022-08-02T12:33:02.802Z,50.7
2022-08-02T12:36:02.878Z,50.7
2022-08-02T12:39:02.750Z,50.7
2022-08-02T12:42:02.809Z,50.7
2022-08-02T12:45:02.885Z,50.7
2022-08-02T12:48:02.825Z,47.5
2022-08-02T12:51:02.811Z,47.5
2022-08-02T12:54:02.888Z,47.5
2022-08-02T12:57:02.841Z,47.5
2022-08-02T13:00:03.775Z,47.5
2022-08-02T13:03:02.811Z,47.5
2022-08-02T13:06:44.272Z,47.5
2022-08-02T13:09:02.826Z,48.1
2022-08-02T13:12:02.871Z,48.1
2022-08-02T13:15:02.815Z,48.1
2022-08-02T13:18:02.797Z,48.1
2022-08-02T13:21:02.873Z,48.1
2022-08-02T13:24:02.862Z,47.6
2022-08-02T13:27:09.128Z,47.6
2022-08-02T13:30:02.928Z,47.6
2022-08-02T13:33:03.622Z,47.6
2022-08-02T13:36:02.811Z,47.6
2022-08-02T13:39:02.873Z,47.6
2022-08-02T13:42:02.798Z,45
2022-08-02T13:45:15.467Z,45
2022-08-02T13:48:19.182Z,45
2022-08-02T13:51:02.774Z,45
2022-08-02T13:54:02.796Z,45
2022-08-02T13:57:02.753Z,45
2022-08-02T14:00:02.867Z,44.8
2022-08-02T14:03:02.787Z,44.8
2022-08-02T14:06:02.858Z,44.8
2022-08-02T14:09:02.782Z,44.8
2022-08-02T14:12:02.795Z,44.8
2022-08-02T14:15:03.102Z,44.8
2022-08-02T14:18:02.839Z,44.8
2022-08-02T14:21:02.730Z,44.8
2022-08-02T14:24:02.768Z,44.8
2022-08-02T14:27:02.827Z,44.8
2022-08-02T14:30:02.810Z,44.8
2022-08-02T14:33:02.765Z,44.8
2022-08-02T14:36:02.793Z,42.9
2022-08-02T14:39:02.814Z,42.9
2022-08-02T14:42:03.254Z,42.9
2022-08-02T14:45:02.795Z,42.9
2022-08-02T14:48:03.064Z,45
2022-08-02T14:51:02.802Z,45
2022-08-02T14:54:05.788Z,45
2022-08-02T14:57:02.805Z,45
2022-08-02T15:00:02.822Z,45
2022-08-02T15:03:02.871Z,45
2022-08-02T15:06:03.195Z,45
2022-08-02T15:09:03.058Z,45
2022-08-02T15:12:12.827Z,45
2022-08-02T15:15:02.836Z,45
2022-08-02T15:18:02.813Z,45
2022-08-02T15:21:18.090Z,45
2022-08-02T15:24:02.779Z,45
2022-08-02T15:27:02.780Z,46.2
2022-08-02T15:30:03.320Z,46.2
2022-08-02T15:33:02.800Z,46.2
2022-08-02T15:36:02.779Z,46.2
2022-08-02T15:39:02.837Z,46.2
2022-08-02T15:42:02.817Z,46.2
2022-08-02T15:45:02.850Z,46.2
2022-08-02T15:48:02.774Z,46.2
2022-08-02T15:51:02.771Z,46.2
2022-08-02T15:54:02.807Z,46.2
2022-08-02T15:57:02.800Z,46.2
2022-08-02T16:00:02.819Z,46.2
2022-08-02T16:03:02.794Z,46.2
2022-08-02T16:06:02.835Z,46.2
2022-08-02T16:09:02.827Z,46.2
2022-08-02T16:12:02.771Z,46.2
2022-08-02T16:15:02.888Z,46.2
2022-08-02T16:18:02.797Z,46.2
2022-08-02T16:21:02.743Z,46.2
2022-08-02T16:24:05.565Z,46.2
2022-08-02T16:27:02.760Z,46.2
2022-08-02T16:30:02.822Z,46.2
2022-08-02T16:33:02.776Z,46.2
2022-08-02T16:36:02.777Z,46.2
2022-08-02T16:39:02.755Z,46.2
2022-08-02T16:42:02.997Z,46.2
2022-08-02T16:45:02.738Z,46.2
2022-08-02T16:48:09.015Z,46.2
2022-08-02T16:51:02.945Z,47.5
2022-08-02T16:54:03.427Z,47.5
2022-08-02T16:57:02.872Z,47.5
2022-08-02T17:00:02.971Z,47.5
2022-08-02T17:03:15.505Z,47.5
2022-08-02T17:06:02.787Z,47.5
2022-08-02T17:09:02.942Z,47.5
2022-08-02T17:12:02.791Z,47.5
2022-08-02T17:18:02.748Z,47.5
2022-08-02T17:21:03.421Z,47.5
2022-08-02T17:24:10.735Z,47.9
2022-08-02T17:27:02.754Z,47.9
2022-08-02T17:30:03.617Z,47.9
2022-08-02T17:33:03.582Z,47.9
2022-08-02T17:36:02.791Z,47.9
2022-08-02T17:39:07.974Z,47.9
2022-08-02T17:42:02.894Z,47.9
2022-08-02T17:45:27.911Z,47.9
2022-08-02T17:48:07.865Z,47.9
2022-08-02T17:51:02.728Z,47.9
2022-08-02T17:54:03.755Z,47.9
2022-08-02T17:57:02.769Z,47.9
2022-08-02T18:00:07.101Z,47.9
2022-08-02T18:03:05.610Z,47.9
2022-08-02T18:06:02.807Z,47.9
2022-08-02T18:09:02.832Z,47.9
2022-08-02T18:12:02.776Z,50.5
2022-08-02T18:15:06.782Z,50.5
2022-08-02T18:18:02.837Z,51.5
2022-08-02T18:21:25.037Z,51.5
2022-08-02T18:24:02.813Z,51.5
2022-08-02T18:27:03.285Z,51.5
2022-08-02T18:30:07.230Z,51.5
2022-08-02T18:36:02.783Z,51.5
2022-08-02T18:39:10.850Z,51.5
2022-08-02T18:42:04.316Z,51.5
2022-08-02T18:45:02.787Z,51.5
2022-08-02T18:48:09.447Z,54
2022-08-02T18:51:02.994Z,54
2022-08-02T18:54:02.832Z,54
2022-08-02T18:57:59.790Z,54
2022-08-02T19:00:03.259Z,54
2022-08-02T19:03:04.352Z,54
2022-08-02T19:06:02.818Z,56
2022-08-02T19:09:15.660Z,56
2022-08-02T19:12:02.743Z,56
2022-08-02T19:15:03.623Z,56
2022-08-02T19:18:02.755Z,57.1
2022-08-02T19:21:09.612Z,57.1
2022-08-02T19:24:06.685Z,57.8
2022-08-02T19:27:19.647Z,57.8
2022-08-02T19:30:04.816Z,57.8
2022-08-02T19:33:11.316Z,57.8
2022-08-02T19:36:06.672Z,57.8
2022-08-02T19:39:02.791Z,59.4
2022-08-02T19:42:02.775Z,59.4
2022-08-02T19:45:02.738Z,59.4
2022-08-02T19:48:02.760Z,59.4
2022-08-02T19:54:03.174Z,59.7
2022-08-02T19:57:02.736Z,59.7
2022-08-02T20:00:02.849Z,59.7
2022-08-02T20:03:02.842Z,59.7
2022-08-02T20:06:02.778Z,59.7
2022-08-02T20:09:04.758Z,60.8
2022-08-02T20:12:02.751Z,60.8
2022-08-02T20:15:02.746Z,61.3
2022-08-02T20:21:02.743Z,61.3
2022-08-02T20:24:02.803Z,61.3
2022-08-02T20:27:02.866Z,61.3
2022-08-02T20:30:02.776Z,62.5
2022-08-02T20:33:24.499Z,62.5
2022-08-02T20:36:02.704Z,62.5
2022-08-02T20:39:02.838Z,62.5
2022-08-02T20:42:25.625Z,62.5
2022-08-02T20:45:02.953Z,63.6
2022-08-02T20:48:02.731Z,63.6
2022-08-02T20:51:12.236Z,63.6
2022-08-02T20:54:04.619Z,63.6
2022-08-02T20:57:05.283Z,63.6
2022-08-02T21:00:02.833Z,63.6
2022-08-02T21:03:02.953Z,65.4
2022-08-02T21:06:03.971Z,65.4
2022-08-02T21:09:02.739Z,65.4
2022-08-02T21:12:02.809Z,65.4
2022-08-02T21:15:02.776Z,65.4
2022-08-02T21:18:14.602Z,65.4
2022-08-02T21:24:04.849Z,65.4
2022-08-02T21:27:02.775Z,65.4
2022-08-02T21:30:03.285Z,65.4
2022-08-02T21:33:02.736Z,67.3
2022-08-02T21:36:02.783Z,67.3
2022-08-02T21:39:08.987Z,67.3
2022-08-02T21:42:02.802Z,67.3
2022-08-02T21:45:19.970Z,67.3
2022-08-02T21:48:02.801Z,67.3
2022-08-02T21:51:02.989Z,67.3
2022-08-02T21:54:21.992Z,67.3
2022-08-02T21:57:02.790Z,68.5
2022-08-02T22:00:03.105Z,68.5
2022-08-02T22:03:24.888Z,68.5
2022-08-02T22:06:02.778Z,69.1
2022-08-02T22:09:02.734Z,69.1
2022-08-02T22:12:02.845Z,69.1
2022-08-02T22:15:03.026Z,69.1
2022-08-02T22:18:02.779Z,69.1
2022-08-02T22:21:02.784Z,69.1
2022-08-02T22:24:02.751Z,69.1
2022-08-02T22:27:04.657Z,69.1
2022-08-02T22:30:03.915Z,69.1
2022-08-02T22:33:11.819Z,70.2
2022-08-02T22:36:02.772Z,70.2
2022-08-02T22:39:02.791Z,70.2
2022-08-02T22:42:09.482Z,70.2
2022-08-02T22:45:02.791Z,70.2
2022-08-02T22:48:03.388Z,70.2
2022-08-02T22:51:02.812Z,70.2
2022-08-02T22:54:02.950Z,70.6
2022-08-02T22:57:02.915Z,70.6
2022-08-02T22:59:01.073Z,59.4
2022-08-02T23:00:03.007Z,70.6
2022-08-02T23:03:02.930Z,70.6
2022-08-02T23:06:02.812Z,70.6
2022-08-02T23:09:02.803Z,70.6
2022-08-02T23:12:02.944Z,70.6
2022-08-02T23:15:02.788Z,70.6
2022-08-02T23:18:02.821Z,70.6
2022-08-02T23:21:02.755Z,70.6
2022-08-02T23:24:02.804Z,70.6
2022-08-02T23:27:02.886Z,70.6
2022-08-02T23:30:02.852Z,71.5
2022-08-02T23:33:04.422Z,71.5
2022-08-02T23:36:02.816Z,71.5
2022-08-02T23:39:02.794Z,71.5
2022-08-02T23:42:02.773Z,71.5
2022-08-02T23:45:02.779Z,71.5
2022-08-02T23:48:02.809Z,71.5
2022-08-02T23:51:02.795Z,71.5
2022-08-02T23:54:02.796Z,72.2
2022-08-02T23:57:21.903Z,72.2
